sensor_id;sensor_type;location;lat;lon;timestamp;temperature;humidity
55213;DHT22;41083;52.932;6.674;2022-10-04T00:01:18;12.10;99.90
55213;DHT22;41083;52.932;6.674;2022-10-04T00:03:46;12.10;99.90
55213;DHT22;41083;52.932;6.674;2022-10-04T00:06:16;12.10;99.90
55213;DHT22;41083;52.932;6.674;2022-10-04T00:08:44;12.10;99.90
55213;DHT22;41083;52.932;6.674;2022-10-04T00:11:30;12.10;99.90
55213;DHT22;41083;52.932;6.674;2022-10-04T00:14:00;12.10;99.90
55213;DHT22;41083;52.932;6.674;2022-10-04T00:16:32;12.10;99.90
55213;DHT22;41083;52.932;6.674;2022-10-04T00:19:03;12.10;99.90
55213;DHT22;41083;52.932;6.674;2022-10-04T00:24:23;12.10;99.90
55213;DHT22;41083;52.932;6.674;2022-10-04T00:29:33;12.10;99.90
55213;DHT22;41083;52.932;6.674;2022-10-04T00:34:50;12.10;99.90
55213;DHT22;41083;52.932;6.674;2022-10-04T00:37:18;12.10;99.90
55213;DHT22;41083;52.932;6.674;2022-10-04T00:39:46;12.10;99.90
55213;DHT22;41083;52.932;6.674;2022-10-04T00:45:19;12.00;99.90
55213;DHT22;41083;52.932;6.674;2022-10-04T00:50:26;12.00;99.90
55213;DHT22;41083;52.932;6.674;2022-10-04T00:52:56;12.00;99.90
55213;DHT22;41083;52.932;6.674;2022-10-04T00:58:03;12.00;99.90
55213;DHT22;41083;52.932;6.674;2022-10-04T01:00:32;12.00;99.90
55213;DHT22;41083;52.932;6.674;2022-10-04T01:03:04;12.00;99.90
55213;DHT22;41083;52.932;6.674;2022-10-04T01:05:36;12.00;99.90
55213;DHT22;41083;52.932;6.674;2022-10-04T01:08:14;12.00;99.90
55213;DHT22;41083;52.932;6.674;2022-10-04T01:10:55;12.00;99.90
55213;DHT22;41083;52.932;6.674;2022-10-04T01:19:24;12.00;99.90
55213;DHT22;41083;52.932;6.674;2022-10-04T01:22:28;12.00;99.90
55213;DHT22;41083;52.932;6.674;2022-10-04T01:24:55;11.90;99.90
55213;DHT22;41083;52.932;6.674;2022-10-04T01:27:40;11.90;99.90
55213;DHT22;41083;52.932;6.674;2022-10-04T01:30:10;11.90;99.90
55213;DHT22;41083;52.932;6.674;2022-10-04T01:32:38;11.90;99.90
55213;DHT22;41083;52.932;6.674;2022-10-04T01:35:07;11.90;99.90
55213;DHT22;41083;52.932;6.674;2022-10-04T01:37:33;11.90;99.90
55213;DHT22;41083;52.932;6.674;2022-10-04T01:40:00;11.80;99.90
55213;DHT22;41083;52.932;6.674;2022-10-04T01:42:34;11.90;99.90
55213;DHT22;41083;52.932;6.674;2022-10-04T01:45:17;11.90;99.90
55213;DHT22;41083;52.932;6.674;2022-10-04T01:47:55;11.90;99.90
55213;DHT22;41083;52.932;6.674;2022-10-04T01:50:32;11.90;99.90
55213;DHT22;41083;52.932;6.674;2022-10-04T01:55:38;11.90;99.90
55213;DHT22;41083;52.932;6.674;2022-10-04T01:58:13;11.90;99.90
55213;DHT22;41083;52.932;6.674;2022-10-04T02:00:47;11.90;99.90
55213;DHT22;41083;52.932;6.674;2022-10-04T02:03:25;11.90;99.90
55213;DHT22;41083;52.932;6.674;2022-10-04T02:05:57;11.90;99.90
55213;DHT22;41083;52.932;6.674;2022-10-04T02:08:27;11.90;99.90
55213;DHT22;41083;52.932;6.674;2022-10-04T02:10:54;11.90;99.90
55213;DHT22;41083;52.932;6.674;2022-10-04T02:13:21;11.90;99.90
55213;DHT22;41083;52.932;6.674;2022-10-04T02:15:48;11.90;99.90
55213;DHT22;41083;52.932;6.674;2022-10-04T02:18:17;11.90;99.90
55213;DHT22;41083;52.932;6.674;2022-10-04T02:20:46;11.90;99.90
55213;DHT22;41083;52.932;6.674;2022-10-04T02:23:16;11.90;99.90
55213;DHT22;41083;52.932;6.674;2022-10-04T02:25:42;11.90;99.90
55213;DHT22;41083;52.932;6.674;2022-10-04T02:28:12;11.90;99.90
55213;DHT22;41083;52.932;6.674;2022-10-04T02:30:42;11.90;99.90
55213;DHT22;41083;52.932;6.674;2022-10-04T02:33:09;11.80;99.90
55213;DHT22;41083;52.932;6.674;2022-10-04T02:35:42;11.80;99.90
55213;DHT22;41083;52.932;6.674;2022-10-04T02:38:21;11.80;99.90
55213;DHT22;41083;52.932;6.674;2022-10-04T02:40:58;11.80;99.90
55213;DHT22;41083;52.932;6.674;2022-10-04T02:46:30;11.80;99.90
55213;DHT22;41083;52.932;6.674;2022-10-04T02:49:03;11.70;99.90
55213;DHT22;41083;52.932;6.674;2022-10-04T02:51:37;11.70;99.90
55213;DHT22;41083;52.932;6.674;2022-10-04T02:54:20;11.70;99.90
55213;DHT22;41083;52.932;6.674;2022-10-04T02:56:52;11.70;99.90
55213;DHT22;41083;52.932;6.674;2022-10-04T02:59:20;11.60;99.90
55213;DHT22;41083;52.932;6.674;2022-10-04T03:01:54;11.60;99.90
55213;DHT22;41083;52.932;6.674;2022-10-04T03:04:28;11.60;99.90
55213;DHT22;41083;52.932;6.674;2022-10-04T03:06:55;11.60;99.90
55213;DHT22;41083;52.932;6.674;2022-10-04T03:09:23;11.60;99.90
55213;DHT22;41083;52.932;6.674;2022-10-04T03:11:50;11.60;99.90
55213;DHT22;41083;52.932;6.674;2022-10-04T03:14:22;11.60;99.90
55213;DHT22;41083;52.932;6.674;2022-10-04T03:16:50;11.60;99.90
55213;DHT22;41083;52.932;6.674;2022-10-04T03:19:19;11.60;99.90
55213;DHT22;41083;52.932;6.674;2022-10-04T03:21:48;11.60;99.90
55213;DHT22;41083;52.932;6.674;2022-10-04T03:24:30;11.60;99.90
55213;DHT22;41083;52.932;6.674;2022-10-04T03:27:00;11.60;99.90
55213;DHT22;41083;52.932;6.674;2022-10-04T03:29:30;11.60;99.90
55213;DHT22;41083;52.932;6.674;2022-10-04T03:31:57;11.60;99.90
55213;DHT22;41083;52.932;6.674;2022-10-04T03:34:51;11.60;99.90
55213;DHT22;41083;52.932;6.674;2022-10-04T03:37:17;11.60;99.90
55213;DHT22;41083;52.932;6.674;2022-10-04T03:39:47;11.60;99.90
55213;DHT22;41083;52.932;6.674;2022-10-04T03:42:16;11.60;99.90
55213;DHT22;41083;52.932;6.674;2022-10-04T03:44:48;11.50;99.90
55213;DHT22;41083;52.932;6.674;2022-10-04T03:47:23;11.50;99.90
55213;DHT22;41083;52.932;6.674;2022-10-04T03:49:50;11.50;99.90
55213;DHT22;41083;52.932;6.674;2022-10-04T03:52:33;11.50;99.90
55213;DHT22;41083;52.932;6.674;2022-10-04T03:55:01;11.50;99.90
55213;DHT22;41083;52.932;6.674;2022-10-04T03:57:29;11.40;99.90
55213;DHT22;41083;52.932;6.674;2022-10-04T03:59:56;11.40;99.90
55213;DHT22;41083;52.932;6.674;2022-10-04T04:02:32;11.40;99.90
55213;DHT22;41083;52.932;6.674;2022-10-04T04:07:36;11.40;99.90
55213;DHT22;41083;52.932;6.674;2022-10-04T04:10:32;11.40;99.90
55213;DHT22;41083;52.932;6.674;2022-10-04T04:15:31;11.40;99.90
55213;DHT22;41083;52.932;6.674;2022-10-04T04:18:03;11.30;99.90
55213;DHT22;41083;52.932;6.674;2022-10-04T04:20:49;11.40;99.90
55213;DHT22;41083;52.932;6.674;2022-10-04T04:23:24;11.30;99.90
55213;DHT22;41083;52.932;6.674;2022-10-04T04:25:54;11.30;99.90
55213;DHT22;41083;52.932;6.674;2022-10-04T04:28:30;11.30;99.90
55213;DHT22;41083;52.932;6.674;2022-10-04T04:31:03;11.40;99.90
55213;DHT22;41083;52.932;6.674;2022-10-04T04:33:38;11.40;99.90
55213;DHT22;41083;52.932;6.674;2022-10-04T04:36:09;11.30;99.90
55213;DHT22;41083;52.932;6.674;2022-10-04T04:38:35;11.30;99.90
55213;DHT22;41083;52.932;6.674;2022-10-04T04:41:22;11.30;99.90
55213;DHT22;41083;52.932;6.674;2022-10-04T04:43:48;11.30;99.90
55213;DHT22;41083;52.932;6.674;2022-10-04T04:46:14;11.30;99.90
55213;DHT22;41083;52.932;6.674;2022-10-04T04:48:42;11.30;99.90
55213;DHT22;41083;52.932;6.674;2022-10-04T04:51:18;11.30;99.90
55213;DHT22;41083;52.932;6.674;2022-10-04T04:53:45;11.20;99.90
55213;DHT22;41083;52.932;6.674;2022-10-04T04:56:17;11.20;99.90
55213;DHT22;41083;52.932;6.674;2022-10-04T04:58:45;11.20;99.90
55213;DHT22;41083;52.932;6.674;2022-10-04T05:06:33;11.10;99.90
55213;DHT22;41083;52.932;6.674;2022-10-04T05:09:00;11.20;99.90
55213;DHT22;41083;52.932;6.674;2022-10-04T05:11:30;11.20;99.90
55213;DHT22;41083;52.932;6.674;2022-10-04T05:16:35;11.10;99.90
55213;DHT22;41083;52.932;6.674;2022-10-04T05:19:46;11.10;99.90
55213;DHT22;41083;52.932;6.674;2022-10-04T05:21:56;11.10;99.90
55213;DHT22;41083;52.932;6.674;2022-10-04T05:24:35;11.10;99.90
55213;DHT22;41083;52.932;6.674;2022-10-04T05:27:04;11.10;99.90
55213;DHT22;41083;52.932;6.674;2022-10-04T05:29:38;11.10;99.90
55213;DHT22;41083;52.932;6.674;2022-10-04T05:32:31;11.10;99.90
55213;DHT22;41083;52.932;6.674;2022-10-04T05:34:58;11.10;99.90
55213;DHT22;41083;52.932;6.674;2022-10-04T05:42:57;11.00;99.90
55213;DHT22;41083;52.932;6.674;2022-10-04T05:45:29;11.00;99.90
55213;DHT22;41083;52.932;6.674;2022-10-04T05:47:59;11.00;99.90
55213;DHT22;41083;52.932;6.674;2022-10-04T05:50:38;11.00;99.90
55213;DHT22;41083;52.932;6.674;2022-10-04T05:53:20;11.00;99.90
55213;DHT22;41083;52.932;6.674;2022-10-04T05:58:56;10.90;99.90
55213;DHT22;41083;52.932;6.674;2022-10-04T06:01:32;10.90;99.90
55213;DHT22;41083;52.932;6.674;2022-10-04T06:07:39;10.90;99.90
55213;DHT22;41083;52.932;6.674;2022-10-04T06:10:00;10.90;99.90
55213;DHT22;41083;52.932;6.674;2022-10-04T06:12:52;11.00;99.90
55213;DHT22;41083;52.932;6.674;2022-10-04T06:21:21;10.90;99.90
55213;DHT22;41083;52.932;6.674;2022-10-04T06:23:56;10.90;99.90
55213;DHT22;41083;52.932;6.674;2022-10-04T06:26:36;10.90;99.90
55213;DHT22;41083;52.932;6.674;2022-10-04T06:29:07;10.90;99.90
55213;DHT22;41083;52.932;6.674;2022-10-04T06:32:07;10.90;99.90
55213;DHT22;41083;52.932;6.674;2022-10-04T06:40:27;10.90;99.90
55213;DHT22;41083;52.932;6.674;2022-10-04T06:51:41;10.80;99.90
55213;DHT22;41083;52.932;6.674;2022-10-04T06:54:45;10.90;99.90
55213;DHT22;41083;52.932;6.674;2022-10-04T06:59:59;10.90;99.90
55213;DHT22;41083;52.932;6.674;2022-10-04T07:02:41;10.90;99.90
55213;DHT22;41083;52.932;6.674;2022-10-04T07:08:26;10.90;99.90
55213;DHT22;41083;52.932;6.674;2022-10-04T07:11:02;11.00;99.90
55213;DHT22;41083;52.932;6.674;2022-10-04T07:16:35;11.10;99.90
55213;DHT22;41083;52.932;6.674;2022-10-04T07:24:28;11.20;99.90
55213;DHT22;41083;52.932;6.674;2022-10-04T07:27:00;11.20;99.90
55213;DHT22;41083;52.932;6.674;2022-10-04T07:29:34;11.20;99.90
55213;DHT22;41083;52.932;6.674;2022-10-04T07:37:26;11.30;99.90
55213;DHT22;41083;52.932;6.674;2022-10-04T07:40:03;11.40;99.90
55213;DHT22;41083;52.932;6.674;2022-10-04T07:42:36;11.40;99.90
55213;DHT22;41083;52.932;6.674;2022-10-04T07:47:42;11.50;99.90
55213;DHT22;41083;52.932;6.674;2022-10-04T07:50:21;11.60;99.90
55213;DHT22;41083;52.932;6.674;2022-10-04T07:55:50;11.70;99.90
55213;DHT22;41083;52.932;6.674;2022-10-04T07:58:40;11.70;99.90
55213;DHT22;41083;52.932;6.674;2022-10-04T08:06:45;12.10;99.90
55213;DHT22;41083;52.932;6.674;2022-10-04T08:09:40;12.10;99.90
55213;DHT22;41083;52.932;6.674;2022-10-04T08:13:04;12.20;99.90
55213;DHT22;41083;52.932;6.674;2022-10-04T08:18:02;12.40;99.90
55213;DHT22;41083;52.932;6.674;2022-10-04T08:34:26;12.60;99.90
55213;DHT22;41083;52.932;6.674;2022-10-04T08:51:52;12.60;99.90
55213;DHT22;41083;52.932;6.674;2022-10-04T09:16:53;13.00;99.90
55213;DHT22;41083;52.932;6.674;2022-10-04T09:19:22;13.00;99.90
55213;DHT22;41083;52.932;6.674;2022-10-04T09:22:08;13.10;99.90
55213;DHT22;41083;52.932;6.674;2022-10-04T09:28:13;13.20;99.90
55213;DHT22;41083;52.932;6.674;2022-10-04T09:36:09;13.40;99.90
55213;DHT22;41083;52.932;6.674;2022-10-04T09:47:07;13.50;99.90
55213;DHT22;41083;52.932;6.674;2022-10-04T09:55:32;13.70;99.90
55213;DHT22;41083;52.932;6.674;2022-10-04T10:00:58;13.70;99.90
55213;DHT22;41083;52.932;6.674;2022-10-04T10:06:28;13.70;99.90
55213;DHT22;41083;52.932;6.674;2022-10-04T10:09:21;13.80;99.90
55213;DHT22;41083;52.932;6.674;2022-10-04T10:26:54;14.00;99.90
55213;DHT22;41083;52.932;6.674;2022-10-04T10:32:38;14.10;99.90
55213;DHT22;41083;52.932;6.674;2022-10-04T10:40:46;14.20;99.90
55213;DHT22;41083;52.932;6.674;2022-10-04T10:43:30;14.20;99.90
55213;DHT22;41083;52.932;6.674;2022-10-04T10:46:22;14.20;99.90
55213;DHT22;41083;52.932;6.674;2022-10-04T11:10:02;14.50;99.90
55213;DHT22;41083;52.932;6.674;2022-10-04T11:13:07;14.50;99.90
55213;DHT22;41083;52.932;6.674;2022-10-04T11:18:44;14.60;99.90
55213;DHT22;41083;52.932;6.674;2022-10-04T11:21:33;14.60;99.90
55213;DHT22;41083;52.932;6.674;2022-10-04T11:30:11;14.70;99.90
55213;DHT22;41083;52.932;6.674;2022-10-04T11:59:42;15.00;99.90
55213;DHT22;41083;52.932;6.674;2022-10-04T12:05:41;15.00;99.90
55213;DHT22;41083;52.932;6.674;2022-10-04T12:11:39;15.00;99.90
55213;DHT22;41083;52.932;6.674;2022-10-04T12:17:30;15.00;99.90
55213;DHT22;41083;52.932;6.674;2022-10-04T12:20:14;15.00;99.90
55213;DHT22;41083;52.932;6.674;2022-10-04T12:22:50;15.00;99.90
55213;DHT22;41083;52.932;6.674;2022-10-04T12:25:50;15.00;99.90
55213;DHT22;41083;52.932;6.674;2022-10-04T12:28:35;15.00;99.90
55213;DHT22;41083;52.932;6.674;2022-10-04T12:33:46;15.10;99.90
55213;DHT22;41083;52.932;6.674;2022-10-04T12:42:37;15.10;99.90
55213;DHT22;41083;52.932;6.674;2022-10-04T12:45:17;15.10;99.90
55213;DHT22;41083;52.932;6.674;2022-10-04T12:51:20;15.20;99.90
55213;DHT22;41083;52.932;6.674;2022-10-04T12:54:11;15.30;99.90
55213;DHT22;41083;52.932;6.674;2022-10-04T12:57:01;15.30;99.90
55213;DHT22;41083;52.932;6.674;2022-10-04T12:59:43;15.30;99.90
55213;DHT22;41083;52.932;6.674;2022-10-04T13:04:54;15.40;99.90
55213;DHT22;41083;52.932;6.674;2022-10-04T13:10:30;15.30;99.90
55213;DHT22;41083;52.932;6.674;2022-10-04T13:24:38;15.40;99.90
55213;DHT22;41083;52.932;6.674;2022-10-04T13:27:15;15.40;99.90
55213;DHT22;41083;52.932;6.674;2022-10-04T13:29:54;15.40;99.90
55213;DHT22;41083;52.932;6.674;2022-10-04T13:32:29;15.30;99.90
55213;DHT22;41083;52.932;6.674;2022-10-04T13:35:19;15.40;99.90
55213;DHT22;41083;52.932;6.674;2022-10-04T13:43:45;15.30;99.90
55213;DHT22;41083;52.932;6.674;2022-10-04T13:46:21;15.30;99.90
55213;DHT22;41083;52.932;6.674;2022-10-04T13:54:53;15.30;99.90
55213;DHT22;41083;52.932;6.674;2022-10-04T13:57:50;15.30;99.90
55213;DHT22;41083;52.932;6.674;2022-10-04T14:00:46;15.30;99.90
55213;DHT22;41083;52.932;6.674;2022-10-04T14:03:29;15.30;99.90
55213;DHT22;41083;52.932;6.674;2022-10-04T14:06:09;15.30;99.90
55213;DHT22;41083;52.932;6.674;2022-10-04T14:15:21;15.40;99.90
55213;DHT22;41083;52.932;6.674;2022-10-04T14:18:22;15.50;99.90
55213;DHT22;41083;52.932;6.674;2022-10-04T14:35:00;15.50;99.90
55213;DHT22;41083;52.932;6.674;2022-10-04T14:38:00;15.50;99.90
55213;DHT22;41083;52.932;6.674;2022-10-04T14:43:36;15.50;99.90
55213;DHT22;41083;52.932;6.674;2022-10-04T14:46:56;15.50;99.90
55213;DHT22;41083;52.932;6.674;2022-10-04T14:54:53;15.40;99.90
55213;DHT22;41083;52.932;6.674;2022-10-04T14:57:23;15.40;99.90
55213;DHT22;41083;52.932;6.674;2022-10-04T15:00:10;15.50;99.90
55213;DHT22;41083;52.932;6.674;2022-10-04T15:06:02;15.40;99.90
55213;DHT22;41083;52.932;6.674;2022-10-04T15:13:51;15.40;99.90
55213;DHT22;41083;52.932;6.674;2022-10-04T15:16:41;15.30;99.90
55213;DHT22;41083;52.932;6.674;2022-10-04T15:22:06;15.30;99.90
55213;DHT22;41083;52.932;6.674;2022-10-04T15:32:44;15.20;99.90
55213;DHT22;41083;52.932;6.674;2022-10-04T15:38:47;15.10;99.90
55213;DHT22;41083;52.932;6.674;2022-10-04T15:41:25;15.10;99.90
55213;DHT22;41083;52.932;6.674;2022-10-04T15:44:14;15.00;99.90
55213;DHT22;41083;52.932;6.674;2022-10-04T15:47:21;15.00;99.90
55213;DHT22;41083;52.932;6.674;2022-10-04T16:01:39;14.90;99.90
55213;DHT22;41083;52.932;6.674;2022-10-04T16:04:38;14.90;99.90
55213;DHT22;41083;52.932;6.674;2022-10-04T16:09:56;14.90;99.90
55213;DHT22;41083;52.932;6.674;2022-10-04T16:12:39;14.80;99.90
55213;DHT22;41083;52.932;6.674;2022-10-04T16:15:29;14.80;99.90
55213;DHT22;41083;52.932;6.674;2022-10-04T16:20:58;14.80;99.90
55213;DHT22;41083;52.932;6.674;2022-10-04T16:23:28;14.70;99.90
55213;DHT22;41083;52.932;6.674;2022-10-04T16:43:00;14.50;99.90
55213;DHT22;41083;52.932;6.674;2022-10-04T16:58:54;14.30;99.90
55213;DHT22;41083;52.932;6.674;2022-10-04T17:06:46;14.20;99.90
55213;DHT22;41083;52.932;6.674;2022-10-04T17:12:25;14.20;99.90
55213;DHT22;41083;52.932;6.674;2022-10-04T17:17:28;14.20;99.90
55213;DHT22;41083;52.932;6.674;2022-10-04T17:20:09;14.20;99.90
55213;DHT22;41083;52.932;6.674;2022-10-04T17:22:43;14.20;99.90
55213;DHT22;41083;52.932;6.674;2022-10-04T17:28:29;14.10;99.90
55213;DHT22;41083;52.932;6.674;2022-10-04T17:33:50;14.10;99.90
55213;DHT22;41083;52.932;6.674;2022-10-04T17:36:46;14.10;99.90
55213;DHT22;41083;52.932;6.674;2022-10-04T17:47:42;14.10;99.90
55213;DHT22;41083;52.932;6.674;2022-10-04T17:53:26;14.20;99.90
55213;DHT22;41083;52.932;6.674;2022-10-04T17:56:11;14.20;99.90
55213;DHT22;41083;52.932;6.674;2022-10-04T17:58:53;14.20;99.90
55213;DHT22;41083;52.932;6.674;2022-10-04T18:01:50;14.20;99.90
55213;DHT22;41083;52.932;6.674;2022-10-04T18:04:23;14.20;99.90
55213;DHT22;41083;52.932;6.674;2022-10-04T18:09:46;14.20;99.90
55213;DHT22;41083;52.932;6.674;2022-10-04T18:12:29;14.20;99.90
55213;DHT22;41083;52.932;6.674;2022-10-04T18:15:09;14.20;99.90
55213;DHT22;41083;52.932;6.674;2022-10-04T18:17:47;14.20;99.90
55213;DHT22;41083;52.932;6.674;2022-10-04T18:20:29;14.20;99.90
55213;DHT22;41083;52.932;6.674;2022-10-04T18:23:11;14.20;99.90
55213;DHT22;41083;52.932;6.674;2022-10-04T18:25:40;14.20;99.90
55213;DHT22;41083;52.932;6.674;2022-10-04T18:30:57;14.20;99.90
55213;DHT22;41083;52.932;6.674;2022-10-04T18:33:49;14.30;99.90
55213;DHT22;41083;52.932;6.674;2022-10-04T18:36:26;14.20;99.90
55213;DHT22;41083;52.932;6.674;2022-10-04T18:41:36;14.30;99.90
55213;DHT22;41083;52.932;6.674;2022-10-04T18:44:19;14.30;99.90
55213;DHT22;41083;52.932;6.674;2022-10-04T18:46:46;14.20;99.90
55213;DHT22;41083;52.932;6.674;2022-10-04T18:49:16;14.20;99.90
55213;DHT22;41083;52.932;6.674;2022-10-04T18:52:14;14.20;99.90
55213;DHT22;41083;52.932;6.674;2022-10-04T18:55:12;14.20;99.90
55213;DHT22;41083;52.932;6.674;2022-10-04T18:57:47;14.20;99.90
55213;DHT22;41083;52.932;6.674;2022-10-04T19:00:41;14.20;99.90
55213;DHT22;41083;52.932;6.674;2022-10-04T19:03:56;14.30;99.90
55213;DHT22;41083;52.932;6.674;2022-10-04T19:06:25;14.20;99.90
55213;DHT22;41083;52.932;6.674;2022-10-04T19:09:18;14.30;99.90
55213;DHT22;41083;52.932;6.674;2022-10-04T19:11:51;14.20;99.90
55213;DHT22;41083;52.932;6.674;2022-10-04T19:14:43;14.20;99.90
55213;DHT22;41083;52.932;6.674;2022-10-04T19:17:34;14.20;99.90
55213;DHT22;41083;52.932;6.674;2022-10-04T19:20:33;14.20;99.90
55213;DHT22;41083;52.932;6.674;2022-10-04T19:26:05;14.20;99.90
55213;DHT22;41083;52.932;6.674;2022-10-04T19:28:35;14.30;99.90
55213;DHT22;41083;52.932;6.674;2022-10-04T19:31:29;14.20;99.90
55213;DHT22;41083;52.932;6.674;2022-10-04T19:34:00;14.20;99.90
55213;DHT22;41083;52.932;6.674;2022-10-04T19:36:58;14.20;99.90
55213;DHT22;41083;52.932;6.674;2022-10-04T19:42:08;14.20;99.90
55213;DHT22;41083;52.932;6.674;2022-10-04T19:44:57;14.30;99.90
55213;DHT22;41083;52.932;6.674;2022-10-04T19:47:49;14.20;99.90
55213;DHT22;41083;52.932;6.674;2022-10-04T19:50:38;14.20;99.90
55213;DHT22;41083;52.932;6.674;2022-10-04T19:55:55;14.30;99.90
55213;DHT22;41083;52.932;6.674;2022-10-04T20:00:51;14.30;99.90
55213;DHT22;41083;52.932;6.674;2022-10-04T20:03:17;14.30;99.90
55213;DHT22;41083;52.932;6.674;2022-10-04T20:05:48;14.20;99.90
55213;DHT22;41083;52.932;6.674;2022-10-04T20:08:16;14.30;99.90
55213;DHT22;41083;52.932;6.674;2022-10-04T20:13:44;14.30;99.90
55213;DHT22;41083;52.932;6.674;2022-10-04T20:16:10;14.30;99.90
55213;DHT22;41083;52.932;6.674;2022-10-04T20:21:08;14.30;99.90
55213;DHT22;41083;52.932;6.674;2022-10-04T20:26:10;14.20;99.90
55213;DHT22;41083;52.932;6.674;2022-10-04T20:28:38;14.30;99.90
55213;DHT22;41083;52.932;6.674;2022-10-04T20:31:10;14.30;99.90
55213;DHT22;41083;52.932;6.674;2022-10-04T20:36:11;14.30;99.90
55213;DHT22;41083;52.932;6.674;2022-10-04T20:44:00;14.30;99.90
55213;DHT22;41083;52.932;6.674;2022-10-04T20:46:32;14.20;99.90
55213;DHT22;41083;52.932;6.674;2022-10-04T20:49:01;14.20;99.90
55213;DHT22;41083;52.932;6.674;2022-10-04T20:51:29;14.30;99.90
55213;DHT22;41083;52.932;6.674;2022-10-04T20:53:58;14.20;99.90
55213;DHT22;41083;52.932;6.674;2022-10-04T20:56:29;14.20;99.90
55213;DHT22;41083;52.932;6.674;2022-10-04T20:58:57;14.20;99.90
55213;DHT22;41083;52.932;6.674;2022-10-04T21:01:32;14.30;99.90
55213;DHT22;41083;52.932;6.674;2022-10-04T21:04:24;14.30;99.90
55213;DHT22;41083;52.932;6.674;2022-10-04T21:07:16;14.30;99.90
55213;DHT22;41083;52.932;6.674;2022-10-04T21:09:43;14.20;99.90
55213;DHT22;41083;52.932;6.674;2022-10-04T21:12:36;14.20;99.90
55213;DHT22;41083;52.932;6.674;2022-10-04T21:15:03;14.20;99.90
55213;DHT22;41083;52.932;6.674;2022-10-04T21:19:55;14.30;99.90
55213;DHT22;41083;52.932;6.674;2022-10-04T21:29:52;14.40;99.90
55213;DHT22;41083;52.932;6.674;2022-10-04T21:32:18;14.40;99.90
55213;DHT22;41083;52.932;6.674;2022-10-04T21:34:44;14.40;99.90
55213;DHT22;41083;52.932;6.674;2022-10-04T21:37:10;14.30;99.90
55213;DHT22;41083;52.932;6.674;2022-10-04T21:39:35;14.50;99.90
55213;DHT22;41083;52.932;6.674;2022-10-04T21:42:01;14.50;99.90
55213;DHT22;41083;52.932;6.674;2022-10-04T21:44:26;14.50;99.90
55213;DHT22;41083;52.932;6.674;2022-10-04T21:46:52;14.50;99.90
55213;DHT22;41083;52.932;6.674;2022-10-04T21:49:17;14.50;99.90
55213;DHT22;41083;52.932;6.674;2022-10-04T21:51:43;14.50;99.90
55213;DHT22;41083;52.932;6.674;2022-10-04T21:54:08;14.60;99.90
55213;DHT22;41083;52.932;6.674;2022-10-04T21:56:34;14.60;99.90
55213;DHT22;41083;52.932;6.674;2022-10-04T21:59:00;14.60;99.90
55213;DHT22;41083;52.932;6.674;2022-10-04T22:01:25;14.60;99.90
55213;DHT22;41083;52.932;6.674;2022-10-04T22:03:51;14.60;99.90
55213;DHT22;41083;52.932;6.674;2022-10-04T22:06:17;14.60;99.90
55213;DHT22;41083;52.932;6.674;2022-10-04T22:08:42;14.60;99.90
55213;DHT22;41083;52.932;6.674;2022-10-04T22:11:09;14.60;99.90
55213;DHT22;41083;52.932;6.674;2022-10-04T22:13:34;14.60;99.90
55213;DHT22;41083;52.932;6.674;2022-10-04T22:16:00;14.50;99.90
55213;DHT22;41083;52.932;6.674;2022-10-04T22:18:30;14.60;99.90
55213;DHT22;41083;52.932;6.674;2022-10-04T22:20:56;14.60;99.90
55213;DHT22;41083;52.932;6.674;2022-10-04T22:23:25;14.60;99.90
55213;DHT22;41083;52.932;6.674;2022-10-04T22:25:52;14.60;99.90
55213;DHT22;41083;52.932;6.674;2022-10-04T22:30:47;14.60;99.90
55213;DHT22;41083;52.932;6.674;2022-10-04T22:33:36;14.60;99.90
55213;DHT22;41083;52.932;6.674;2022-10-04T22:36:18;14.60;99.90
55213;DHT22;41083;52.932;6.674;2022-10-04T22:39:02;14.60;99.90
55213;DHT22;41083;52.932;6.674;2022-10-04T22:41:31;14.60;99.90
55213;DHT22;41083;52.932;6.674;2022-10-04T22:44:05;14.60;99.90
55213;DHT22;41083;52.932;6.674;2022-10-04T22:46:35;14.60;99.90
55213;DHT22;41083;52.932;6.674;2022-10-04T22:49:08;14.60;99.90
55213;DHT22;41083;52.932;6.674;2022-10-04T22:51:36;14.60;99.90
55213;DHT22;41083;52.932;6.674;2022-10-04T22:54:07;14.60;99.90
55213;DHT22;41083;52.932;6.674;2022-10-04T22:56:33;14.60;99.90
55213;DHT22;41083;52.932;6.674;2022-10-04T22:58:59;14.60;99.90
55213;DHT22;41083;52.932;6.674;2022-10-04T23:01:25;14.50;99.90
55213;DHT22;41083;52.932;6.674;2022-10-04T23:03:51;14.60;99.90
55213;DHT22;41083;52.932;6.674;2022-10-04T23:06:17;14.60;99.90
55213;DHT22;41083;52.932;6.674;2022-10-04T23:08:43;14.60;99.90
55213;DHT22;41083;52.932;6.674;2022-10-04T23:11:10;14.50;99.90
55213;DHT22;41083;52.932;6.674;2022-10-04T23:13:36;14.50;99.90
55213;DHT22;41083;52.932;6.674;2022-10-04T23:16:15;14.50;99.90
55213;DHT22;41083;52.932;6.674;2022-10-04T23:18:42;14.60;99.90
55213;DHT22;41083;52.932;6.674;2022-10-04T23:21:30;14.50;99.90
55213;DHT22;41083;52.932;6.674;2022-10-04T23:24:03;14.50;99.90
55213;DHT22;41083;52.932;6.674;2022-10-04T23:26:37;14.50;99.90
55213;DHT22;41083;52.932;6.674;2022-10-04T23:29:17;14.50;99.90
55213;DHT22;41083;52.932;6.674;2022-10-04T23:31:45;14.50;99.90
55213;DHT22;41083;52.932;6.674;2022-10-04T23:34:18;14.50;99.90
55213;DHT22;41083;52.932;6.674;2022-10-04T23:36:45;14.50;99.90
55213;DHT22;41083;52.932;6.674;2022-10-04T23:39:21;14.50;99.90
55213;DHT22;41083;52.932;6.674;2022-10-04T23:41:46;14.50;99.90
55213;DHT22;41083;52.932;6.674;2022-10-04T23:44:13;14.50;99.90
55213;DHT22;41083;52.932;6.674;2022-10-04T23:46:40;14.50;99.90
55213;DHT22;41083;52.932;6.674;2022-10-04T23:49:11;14.50;99.90
55213;DHT22;41083;52.932;6.674;2022-10-04T23:51:37;14.50;99.90
55213;DHT22;41083;52.932;6.674;2022-10-04T23:54:07;14.50;99.90
55213;DHT22;41083;52.932;6.674;2022-10-04T23:56:34;14.50;99.90
55213;DHT22;41083;52.932;6.674;2022-10-04T23:59:00;14.50;99.90
